Terminal Aerodrome Forecast
Issued by NWS

Home | Current Version | Previous Version | Text Only | Print | Product List | Glossary On
Versions: 1 2 3 4 5 6 7 8 9 10 11 12 13 14 15 16 17 18 19 20 21 22 23 24 25 26 27 28 29 30 31 32 33 34 35 36 37 38 39 40 41 42 43 44 45
000
FTUS45 KSLC 111720
TAFPVU
TAF
KPVU 111720Z 1118/1218 00000KT 1/4SM FZFG VV002
      TEMPO 1120/1121 1SM HZ FEW002 SCT150
     FM112100 VRB03KT 2SM HZ FEW002 SCT150
     FM112300 VRB04KT 3SM HZ FEW005 SCT150
     FM120300 30005KT 1SM BR SCT005 OVC008
     FM120500 VRB03KT 1/2SM FZFG VV003=

USA.gov is the U.S. government's official web portal to all federal, state and local government web resources and services.